createdAt,value
2018-12-17T00:01:12.108Z,98483.73
2018-12-17T00:03:40.181Z,98486.80
2018-12-17T00:06:08.316Z,98485.00
2018-12-17T00:08:36.916Z,98487.66
2018-12-17T00:11:05.675Z,98489.80
2018-12-17T00:13:33.743Z,98494.73
2018-12-17T00:16:01.924Z,98489.66
2018-12-17T00:18:29.999Z,98486.05
2018-12-17T00:20:58.059Z,98488.84
2018-12-17T00:23:26.234Z,98489.16
2018-12-17T00:25:54.402Z,98492.04
2018-12-17T00:28:22.482Z,98494.68
2018-12-17T00:30:50.590Z,98495.02
2018-12-17T00:33:18.627Z,98497.13
2018-12-17T00:35:46.686Z,98496.16
2018-12-17T00:38:14.768Z,98492.26
2018-12-17T00:40:42.884Z,98492.58
2018-12-17T00:43:10.950Z,98490.45
2018-12-17T00:45:39.745Z,98494.51
2018-12-17T00:48:07.815Z,98497.87
2018-12-17T00:50:35.863Z,98494.23
2018-12-17T00:53:04.027Z,98497.97
2018-12-17T00:55:32.111Z,98492.66
2018-12-17T00:58:00.271Z,98488.55
2018-12-17T01:00:28.442Z,98492.73
2018-12-17T01:02:56.507Z,98489.47
2018-12-17T01:05:24.592Z,98496.79
2018-12-17T01:07:52.698Z,98492.90
2018-12-17T01:10:20.758Z,98494.39
2018-12-17T01:12:48.836Z,98496.12
2018-12-17T01:15:16.882Z,98495.91
2018-12-17T01:17:44.939Z,98500.60
2018-12-17T01:20:12.994Z,98498.66
2018-12-17T01:22:41.067Z,98497.72
2018-12-17T01:25:09.194Z,98499.23
2018-12-17T01:27:37.367Z,98501.70
2018-12-17T01:30:08.224Z,98505.09
2018-12-17T01:32:36.358Z,98504.82
2018-12-17T01:35:05.801Z,98514.53
2018-12-17T01:37:33.979Z,98513.84
2018-12-17T01:40:02.092Z,98517.12
2018-12-17T01:42:30.197Z,98517.72
2018-12-17T01:44:58.259Z,98518.48
2018-12-17T01:47:26.727Z,98517.56
2018-12-17T01:49:54.831Z,98521.36
2018-12-17T01:52:22.963Z,98523.91
2018-12-17T01:54:51.027Z,98522.94
2018-12-17T01:57:19.082Z,98528.34
2018-12-17T01:59:47.420Z,98537.36
2018-12-17T02:02:15.503Z,98540.33
2018-12-17T02:04:43.622Z,98547.16
2018-12-17T02:07:11.840Z,98547.09
2018-12-17T02:09:39.970Z,98556.73
2018-12-17T02:12:08.039Z,98560.35
2018-12-17T02:14:36.120Z,98563.27
2018-12-17T02:17:04.295Z,98564.92
2018-12-17T02:19:32.392Z,98562.32
2018-12-17T02:22:00.491Z,98562.17
2018-12-17T02:24:28.562Z,98560.41
2018-12-17T02:26:56.599Z,98564.29
2018-12-17T02:29:24.671Z,98564.53
2018-12-17T02:31:52.728Z,98571.06
2018-12-17T02:34:20.923Z,98568.22
2018-12-17T02:36:48.999Z,98566.53
2018-12-17T02:39:17.172Z,98568.27
2018-12-17T02:41:45.250Z,98573.22
2018-12-17T02:44:13.720Z,98577.94
2018-12-17T02:46:41.802Z,98583.16
2018-12-17T02:49:10.078Z,98589.63
2018-12-17T02:51:38.465Z,98586.73
2018-12-17T02:54:06.619Z,98591.93
2018-12-17T02:56:34.690Z,98591.44
2018-12-17T02:59:03.380Z,98598.54
2018-12-17T03:01:31.472Z,98593.36
2018-12-17T03:04:00.234Z,98593.11
2018-12-17T03:06:28.515Z,98596.70
2018-12-17T03:08:56.686Z,98595.70
2018-12-17T03:11:24.727Z,98595.31
2018-12-17T03:13:52.843Z,98599.26
2018-12-17T03:16:20.890Z,98605.58
2018-12-17T03:18:48.976Z,98607.80
2018-12-17T03:21:17.059Z,98603.05
2018-12-17T03:23:45.327Z,98605.59
2018-12-17T03:26:13.501Z,98600.34
2018-12-17T03:28:41.783Z,98607.33
2018-12-17T03:31:09.853Z,98612.34
2018-12-17T03:33:38.007Z,98611.91
2018-12-17T03:36:06.088Z,98612.42
2018-12-17T03:38:34.268Z,98613.43
2018-12-17T03:41:02.436Z,98617.30
2018-12-17T03:43:30.686Z,98625.10
2018-12-17T03:46:00.161Z,98627.73
2018-12-17T03:48:28.399Z,98631.64
2018-12-17T03:50:56.459Z,98631.64
2018-12-17T03:53:24.540Z,98635.23
2018-12-17T03:55:52.591Z,98627.69
2018-12-17T03:58:20.988Z,98630.59
2018-12-17T04:00:49.056Z,98626.80
2018-12-17T04:03:17.133Z,98627.77
2018-12-17T04:05:45.219Z,98626.34
2018-12-17T04:08:13.292Z,98627.59
2018-12-17T04:10:41.360Z,98629.98
2018-12-17T04:13:09.512Z,98628.11
2018-12-17T04:15:37.583Z,98628.83
2018-12-17T04:18:05.650Z,98627.79
2018-12-17T04:20:33.706Z,98630.44
2018-12-17T04:23:02.002Z,98630.16
2018-12-17T04:25:30.075Z,98634.89
2018-12-17T04:27:58.244Z,98633.54
2018-12-17T04:30:26.290Z,98639.42
2018-12-17T04:32:54.471Z,98645.13
2018-12-17T04:35:22.554Z,98646.46
2018-12-17T04:37:50.635Z,98645.37
2018-12-17T04:40:19.255Z,98652.17
2018-12-17T04:42:47.699Z,98650.34
2018-12-17T04:45:15.752Z,98656.84
2018-12-17T04:47:43.884Z,98659.30
2018-12-17T04:50:12.101Z,98663.20
2018-12-17T04:52:40.185Z,98659.86
2018-12-17T04:55:08.228Z,98665.33
2018-12-17T04:57:37.007Z,98669.00
2018-12-17T05:00:06.520Z,98677.95
2018-12-17T05:02:34.685Z,98679.87
2018-12-17T05:05:02.874Z,98681.52
2018-12-17T05:07:30.954Z,98691.08
2018-12-17T05:09:59.020Z,98681.03
2018-12-17T05:12:27.294Z,98681.95
2018-12-17T05:14:55.370Z,98684.36
2018-12-17T05:17:23.667Z,98683.92
2018-12-17T05:19:51.746Z,98688.55
2018-12-17T05:22:19.811Z,98690.16
2018-12-17T05:24:47.987Z,98683.58
2018-12-17T05:27:16.306Z,98682.00
2018-12-17T05:29:44.331Z,98682.70
2018-12-17T05:32:12.407Z,98687.49
2018-12-17T05:34:40.587Z,98694.09
2018-12-17T05:37:09.331Z,98703.14
2018-12-17T05:39:37.415Z,98715.08
2018-12-17T05:42:05.611Z,98711.64
2018-12-17T05:44:33.765Z,98715.35
2018-12-17T05:47:01.961Z,98731.55
2018-12-17T05:49:30.031Z,98726.49
2018-12-17T05:51:58.119Z,98734.64
2018-12-17T05:54:26.195Z,98737.36
2018-12-17T05:56:54.755Z,98747.36
2018-12-17T05:59:28.537Z,98747.55
2018-12-17T06:01:52.914Z,98751.45
2018-12-17T06:04:20.996Z,98758.20
2018-12-17T06:06:49.158Z,98749.49
2018-12-17T06:09:17.619Z,98753.45
2018-12-17T06:11:45.785Z,98747.69
2018-12-17T06:14:13.819Z,98755.95
2018-12-17T06:16:42.507Z,98772.13
2018-12-17T06:19:10.558Z,98771.23
2018-12-17T06:21:38.727Z,98775.98
2018-12-17T06:24:06.819Z,98776.55
2018-12-17T06:26:34.891Z,98777.70
2018-12-17T06:29:02.961Z,98779.53
2018-12-17T06:31:31.078Z,98788.29
2018-12-17T06:33:59.246Z,98795.27
2018-12-17T06:36:27.795Z,98805.78
2018-12-17T06:38:55.863Z,98805.17
2018-12-17T06:41:23.930Z,98807.02
2018-12-17T06:43:52.026Z,98805.42
2018-12-17T06:46:20.095Z,98804.59
2018-12-17T06:48:48.221Z,98801.73
2018-12-17T06:51:16.287Z,98809.92
2018-12-17T06:53:44.373Z,98809.41
2018-12-17T06:56:12.443Z,98819.86
2018-12-17T06:58:40.539Z,98819.64
2018-12-17T07:01:08.592Z,98825.63
2018-12-17T07:03:36.653Z,98829.16
2018-12-17T07:06:04.815Z,98835.50
2018-12-17T07:08:32.924Z,98834.27
2018-12-17T07:11:01.198Z,98837.61
2018-12-17T07:13:29.259Z,98844.87
2018-12-17T07:15:57.335Z,98839.73
2018-12-17T07:18:25.428Z,98834.83
2018-12-17T07:20:53.463Z,98833.83
2018-12-17T07:23:21.898Z,98834.91
2018-12-17T07:25:49.984Z,98841.10
2018-12-17T07:28:18.031Z,98847.16
2018-12-17T07:30:46.100Z,98850.06
2018-12-17T07:33:14.219Z,98853.71
2018-12-17T07:35:42.369Z,98861.83
2018-12-17T07:38:10.440Z,98863.94
2018-12-17T07:40:38.860Z,98860.97
2018-12-17T07:43:06.955Z,98861.59
2018-12-17T07:45:35.194Z,98868.11
2018-12-17T07:48:03.398Z,98870.77
2018-12-17T07:50:31.490Z,98880.05
2018-12-17T07:52:59.585Z,98881.12
2018-12-17T07:55:27.631Z,98886.77
2018-12-17T07:57:55.706Z,98886.70
2018-12-17T08:00:23.772Z,98891.80
2018-12-17T08:02:51.826Z,98894.94
2018-12-17T08:05:19.877Z,98902.25
2018-12-17T08:07:47.952Z,98904.83
2018-12-17T08:10:16.013Z,98914.09
2018-12-17T08:12:44.074Z,98915.91
2018-12-17T08:15:12.359Z,98914.77
2018-12-17T08:17:40.548Z,98923.78
2018-12-17T08:20:08.934Z,98926.44
2018-12-17T08:22:37.435Z,98927.77
2018-12-17T08:25:05.604Z,98932.53
2018-12-17T08:27:33.667Z,98937.30
2018-12-17T08:30:04.011Z,98938.53
2018-12-17T08:32:31.927Z,98941.92
2018-12-17T08:34:59.983Z,98940.41
2018-12-17T08:37:28.120Z,98946.34
2018-12-17T08:39:56.217Z,98940.70
2018-12-17T08:42:24.394Z,98952.80
2018-12-17T08:44:52.819Z,98956.42
2018-12-17T08:47:20.979Z,98961.57
2018-12-17T08:49:49.120Z,98967.57
2018-12-17T08:52:17.258Z,98969.16
2018-12-17T08:54:45.528Z,98974.11
2018-12-17T08:57:13.607Z,98980.19
2018-12-17T08:59:41.671Z,98984.84
2018-12-17T09:02:09.726Z,98983.22
2018-12-17T09:04:37.807Z,98991.05
2018-12-17T09:07:05.858Z,98996.66
2018-12-17T09:09:34.000Z,98992.90
2018-12-17T09:12:02.014Z,98999.84
2018-12-17T09:14:30.099Z,99006.00
2018-12-17T09:16:58.209Z,99006.00
2018-12-17T09:19:26.363Z,99011.72
2018-12-17T09:21:54.827Z,99007.58
2018-12-17T09:24:23.099Z,99014.51
2018-12-17T09:26:51.147Z,99012.81
2018-12-17T09:29:19.218Z,99020.66
2018-12-17T09:31:48.738Z,99015.66
2018-12-17T09:34:16.867Z,99017.63
2018-12-17T09:36:45.277Z,99021.66
2018-12-17T09:39:14.127Z,99025.33
2018-12-17T09:41:42.213Z,99025.06
2018-12-17T09:44:10.640Z,99025.32
2018-12-17T09:46:38.995Z,99029.02
2018-12-17T09:49:07.232Z,99028.31
2018-12-17T09:51:35.254Z,99033.22
2018-12-17T09:54:03.334Z,99027.16
2018-12-17T09:56:31.406Z,99027.73
2018-12-17T09:58:59.518Z,99034.88
2018-12-17T10:01:27.568Z,99034.48
2018-12-17T10:03:55.638Z,99038.81
2018-12-17T10:06:23.737Z,99038.20
2018-12-17T10:08:51.791Z,99039.66
2018-12-17T10:11:19.935Z,99043.53
2018-12-17T10:13:47.998Z,99042.34
2018-12-17T10:16:16.033Z,99034.48
2018-12-17T10:18:44.126Z,99036.22
2018-12-17T10:21:12.270Z,99038.22
2018-12-17T10:23:40.521Z,99033.87
2018-12-17T10:26:08.935Z,99038.43
2018-12-17T10:28:36.995Z,99038.88
2018-12-17T10:31:05.122Z,99037.38
2018-12-17T10:33:33.207Z,99043.75
2018-12-17T10:36:01.261Z,99040.42
2018-12-17T10:38:29.335Z,99038.19
2018-12-17T10:40:57.409Z,99043.11
2018-12-17T10:43:25.536Z,99043.02
2018-12-17T10:45:53.607Z,99044.10
2018-12-17T10:48:21.795Z,99054.11
2018-12-17T10:50:50.453Z,99053.75
2018-12-17T10:53:18.631Z,99052.75
2018-12-17T10:55:47.401Z,99051.55
2018-12-17T10:58:15.423Z,99050.73
2018-12-17T11:00:45.403Z,99053.07
2018-12-17T11:03:15.147Z,99055.26
2018-12-17T11:05:43.693Z,99054.02
2018-12-17T11:08:11.739Z,99055.61
2018-12-17T11:10:40.310Z,99044.00
2018-12-17T11:13:08.459Z,99056.05
2018-12-17T11:15:36.882Z,99038.64
2018-12-17T11:18:05.256Z,99031.69
2018-12-17T11:20:33.779Z,99025.52
2018-12-17T11:23:02.115Z,99032.98
2018-12-17T11:25:30.191Z,99030.36
2018-12-17T11:27:58.251Z,99034.92
2018-12-17T11:30:26.876Z,99025.08
2018-12-17T11:32:55.153Z,99035.16
2018-12-17T11:35:23.303Z,99031.27
2018-12-17T11:37:51.452Z,99029.19
2018-12-17T11:40:19.743Z,99026.67
2018-12-17T11:42:47.958Z,99032.11
2018-12-17T11:45:16.038Z,99034.57
2018-12-17T11:47:44.672Z,99044.74
2018-12-17T11:50:12.739Z,99055.28
2018-12-17T11:52:41.048Z,99051.83
2018-12-17T11:55:09.371Z,99064.98
2018-12-17T11:57:41.250Z,99067.84
2018-12-17T12:00:09.731Z,99079.93
2018-12-17T12:02:37.859Z,99076.77
2018-12-17T12:05:06.098Z,99078.92
2018-12-17T12:07:34.155Z,99085.54
2018-12-17T12:10:02.322Z,99084.52
2018-12-17T12:12:30.415Z,99086.37
2018-12-17T12:14:58.499Z,99090.02
2018-12-17T12:17:26.535Z,99096.84
2018-12-17T12:19:54.712Z,99098.38
2018-12-17T12:22:22.850Z,99094.47
2018-12-17T12:24:50.953Z,99090.69
2018-12-17T12:27:19.399Z,99095.64
2018-12-17T12:29:47.609Z,99089.84
2018-12-17T12:32:16.295Z,99101.03
2018-12-17T12:34:44.486Z,99104.78
2018-12-17T12:37:12.554Z,99105.07
2018-12-17T12:39:40.688Z,99104.22
2018-12-17T12:42:08.894Z,99114.69
2018-12-17T12:44:36.952Z,99115.67
2018-12-17T12:47:05.338Z,99110.66
2018-12-17T12:49:33.718Z,99110.41
2018-12-17T12:52:02.143Z,99116.95
2018-12-17T12:54:30.370Z,99115.78
2018-12-17T12:56:58.413Z,99114.30
2018-12-17T12:59:26.555Z,99116.63
2018-12-17T13:01:54.663Z,99122.53
2018-12-17T13:04:22.738Z,99125.88
2018-12-17T13:06:50.825Z,99123.54
2018-12-17T13:09:21.039Z,99132.22
2018-12-17T13:11:49.605Z,99132.66
2018-12-17T13:14:17.657Z,99133.03
2018-12-17T13:16:45.944Z,99129.11
2018-12-17T13:19:14.010Z,99128.27
2018-12-17T13:21:42.214Z,99127.42
2018-12-17T13:24:10.500Z,99134.84
2018-12-17T13:26:38.566Z,99136.55
2018-12-17T13:29:06.646Z,99143.16
2018-12-17T13:31:34.750Z,99150.75
2018-12-17T13:34:02.831Z,99160.68
2018-12-17T13:36:30.943Z,99160.20
2018-12-17T13:38:59.035Z,99161.56
2018-12-17T13:41:27.300Z,99169.58
2018-12-17T13:43:56.914Z,99175.07
2018-12-17T13:46:25.130Z,99175.56
2018-12-17T13:48:53.150Z,99192.65
2018-12-17T13:51:23.115Z,99189.62
2018-12-17T13:53:51.459Z,99188.06
2018-12-17T13:56:19.515Z,99190.08
2018-12-17T13:58:47.954Z,99187.94
2018-12-17T14:01:21.845Z,99190.41
2018-12-17T14:03:46.140Z,99192.75
2018-12-17T14:06:14.972Z,99197.59
2018-12-17T14:08:43.675Z,99201.72
2018-12-17T14:11:11.734Z,99206.77
2018-12-17T14:13:39.918Z,99204.79
2018-12-17T14:16:09.974Z,99214.00
2018-12-17T14:18:39.931Z,99212.91
2018-12-17T14:21:09.906Z,99215.12
2018-12-17T14:23:38.043Z,99216.16
2018-12-17T14:26:06.115Z,99219.23
2018-12-17T14:28:34.191Z,99224.41
2018-12-17T14:31:02.275Z,99227.52
2018-12-17T14:33:30.455Z,99225.38
2018-12-17T14:36:00.403Z,99228.04
2018-12-17T14:38:28.476Z,99234.66
2018-12-17T14:40:56.534Z,99241.73
2018-12-17T14:43:24.597Z,99240.61
2018-12-17T14:45:52.668Z,99237.25
2018-12-17T14:48:20.848Z,99241.01
2018-12-17T14:50:48.919Z,99243.11
2018-12-17T14:53:17.048Z,99233.50
2018-12-17T14:55:45.098Z,99238.34
2018-12-17T14:58:13.407Z,99236.05
2018-12-17T15:00:41.512Z,99238.23
2018-12-17T15:03:09.584Z,99237.45
2018-12-17T15:05:37.610Z,99240.16
2018-12-17T15:08:05.701Z,99236.01
2018-12-17T15:10:33.771Z,99240.73
2018-12-17T15:13:01.850Z,99242.84
2018-12-17T15:15:29.910Z,99241.17
2018-12-17T15:17:57.958Z,99246.47
2018-12-17T15:20:26.030Z,99250.19
2018-12-17T15:22:54.098Z,99250.62
2018-12-17T15:25:22.352Z,99257.13
2018-12-17T15:27:50.501Z,99269.90
2018-12-17T15:30:18.814Z,99274.51
2018-12-17T15:32:46.912Z,99289.62
2018-12-17T15:35:14.991Z,99296.72
2018-12-17T15:37:43.069Z,99305.22
2018-12-17T15:40:11.408Z,99308.84
2018-12-17T15:42:40.895Z,99312.32
2018-12-17T15:45:09.486Z,99322.62
2018-12-17T15:47:37.554Z,99327.42
2018-12-17T15:50:06.011Z,99333.31
2018-12-17T15:52:34.112Z,99340.39
2018-12-17T15:55:02.550Z,99348.91
2018-12-17T15:57:30.868Z,99354.88
2018-12-17T15:59:58.939Z,99363.63
2018-12-17T16:02:27.019Z,99368.34
2018-12-17T16:04:55.066Z,99368.42
2018-12-17T16:07:23.187Z,99367.80
2018-12-17T16:09:53.135Z,99369.13
2018-12-17T16:12:21.167Z,99370.34
2018-12-17T16:14:49.288Z,99373.30
2018-12-17T16:17:17.312Z,99377.72
2018-12-17T16:19:45.588Z,99383.59
2018-12-17T16:22:13.663Z,99382.55
2018-12-17T16:24:41.715Z,99387.48
2018-12-17T16:27:10.196Z,99396.81
2018-12-17T16:29:38.354Z,99395.06
2018-12-17T16:32:06.475Z,99392.98
2018-12-17T16:34:35.050Z,99394.16
2018-12-17T16:37:03.398Z,99397.66
2018-12-17T16:39:31.462Z,99381.75
2018-12-17T16:41:59.717Z,99382.27
2018-12-17T16:44:27.747Z,99382.08
2018-12-17T16:46:55.827Z,99389.38
2018-12-17T16:49:23.982Z,99398.36
2018-12-17T16:51:52.050Z,99403.31
2018-12-17T16:54:20.131Z,99410.69
2018-12-17T16:56:48.275Z,99411.59
2018-12-17T16:59:16.358Z,99419.28
2018-12-17T17:01:44.438Z,99422.88
2018-12-17T17:04:12.503Z,99428.08
2018-12-17T17:06:40.663Z,99429.30
2018-12-17T17:09:08.931Z,99429.97
2018-12-17T17:11:36.993Z,99422.30
2018-12-17T17:14:05.179Z,99423.05
2018-12-17T17:16:33.247Z,99433.17
2018-12-17T17:19:01.335Z,99430.80
2018-12-17T17:21:29.419Z,99440.55
2018-12-17T17:23:57.501Z,99448.09
2018-12-17T17:26:25.571Z,99446.17
2018-12-17T17:28:53.621Z,99450.20
2018-12-17T17:31:21.780Z,99458.88
2018-12-17T17:33:50.606Z,99463.75
2018-12-17T17:36:18.874Z,99467.14
2018-12-17T17:38:46.935Z,99466.09
2018-12-17T17:41:15.014Z,99471.44
2018-12-17T17:43:43.210Z,99468.28
2018-12-17T17:46:11.283Z,99465.80
2018-12-17T17:48:39.351Z,99468.42
2018-12-17T17:51:07.589Z,99474.71
2018-12-17T17:53:35.626Z,99478.15
2018-12-17T17:56:03.798Z,99483.73
2018-12-17T17:58:31.954Z,99488.05
2018-12-17T18:01:00.379Z,99482.47
2018-12-17T18:03:28.435Z,99486.20
2018-12-17T18:05:56.556Z,99479.53
2018-12-17T18:08:24.604Z,99489.92
2018-12-17T18:10:52.684Z,99487.30
2018-12-17T18:13:20.764Z,99498.87
2018-12-17T18:15:48.811Z,99498.16
2018-12-17T18:18:17.011Z,99512.08
2018-12-17T18:20:45.059Z,99511.13
2018-12-17T18:23:13.107Z,99517.44
2018-12-17T18:25:41.208Z,99521.72
2018-12-17T18:28:09.250Z,99525.84
2018-12-17T18:30:37.316Z,99531.08
2018-12-17T18:33:05.385Z,99531.53
2018-12-17T18:35:33.451Z,99537.59
2018-12-17T18:38:01.560Z,99530.86
2018-12-17T18:40:29.971Z,99539.62
2018-12-17T18:42:58.235Z,99540.50
2018-12-17T18:45:26.478Z,99537.55
2018-12-17T18:47:54.539Z,99546.14
2018-12-17T18:50:22.663Z,99552.35
2018-12-17T18:52:50.706Z,99554.80
2018-12-17T18:55:19.106Z,99559.84
2018-12-17T18:57:47.146Z,99565.97
2018-12-17T19:00:15.255Z,99571.11
2018-12-17T19:02:43.627Z,99572.27
2018-12-17T19:05:11.891Z,99576.68
2018-12-17T19:07:39.931Z,99572.98
2018-12-17T19:10:08.864Z,99580.78
2018-12-17T19:12:37.164Z,99583.41
2018-12-17T19:15:06.086Z,99580.17
2018-12-17T19:17:34.177Z,99577.44
2018-12-17T19:20:02.455Z,99583.54
2018-12-17T19:22:30.532Z,99582.40
2018-12-17T19:24:58.627Z,99583.39
2018-12-17T19:27:26.744Z,99583.98
2018-12-17T19:29:54.866Z,99590.30
2018-12-17T19:32:22.941Z,99590.17
2018-12-17T19:34:50.980Z,99590.45
2018-12-17T19:37:19.140Z,99591.92
2018-12-17T19:39:47.231Z,99595.70
2018-12-17T19:42:15.307Z,99596.19
2018-12-17T19:44:43.370Z,99596.97
2018-12-17T19:47:11.471Z,99605.63
2018-12-17T19:49:39.547Z,99597.73
2018-12-17T19:52:07.615Z,99604.81
2018-12-17T19:54:35.755Z,99597.57
2018-12-17T19:57:03.843Z,99595.70
2018-12-17T19:59:31.896Z,99597.91
2018-12-17T20:02:00.116Z,99602.98
2018-12-17T20:04:28.359Z,99601.35
2018-12-17T20:06:56.431Z,99603.28
2018-12-17T20:09:24.514Z,99603.42
2018-12-17T20:11:52.742Z,99605.17
2018-12-17T20:14:20.868Z,99610.43
2018-12-17T20:16:48.950Z,99609.98
2018-12-17T20:19:17.015Z,99604.40
2018-12-17T20:21:45.074Z,99603.14
2018-12-17T20:24:13.168Z,99608.86
2018-12-17T20:26:41.220Z,99610.03
2018-12-17T20:29:09.303Z,99611.55
2018-12-17T20:31:37.463Z,99607.46
2018-12-17T20:34:05.547Z,99612.25
2018-12-17T20:36:33.583Z,99606.98
2018-12-17T20:39:02.095Z,99603.85
2018-12-17T20:41:30.824Z,99608.64
2018-12-17T20:43:58.923Z,99610.31
2018-12-17T20:46:27.027Z,99619.13
2018-12-17T20:48:55.098Z,99614.67
2018-12-17T20:51:23.170Z,99625.31
2018-12-17T20:53:51.237Z,99621.86
2018-12-17T20:56:19.307Z,99624.75
2018-12-17T20:58:47.391Z,99625.80
2018-12-17T21:01:15.552Z,99620.22
2018-12-17T21:03:43.899Z,99620.28
2018-12-17T21:06:11.948Z,99632.14
2018-12-17T21:08:40.203Z,99624.51
2018-12-17T21:11:08.355Z,99625.13
2018-12-17T21:13:36.419Z,99632.83
2018-12-17T21:16:04.892Z,99635.25
2018-12-17T21:18:32.979Z,99633.89
2018-12-17T21:21:01.051Z,99633.98
2018-12-17T21:23:30.467Z,99632.22
2018-12-17T21:25:58.607Z,99625.48
2018-12-17T21:28:26.700Z,99627.42
2018-12-17T21:30:55.170Z,99624.25
2018-12-17T21:33:23.250Z,99630.52
2018-12-17T21:35:51.326Z,99638.00
2018-12-17T21:38:19.623Z,99637.55
2018-12-17T21:40:47.701Z,99644.30
2018-12-17T21:43:15.769Z,99646.91
2018-12-17T21:45:43.871Z,99648.63
2018-12-17T21:48:11.903Z,99645.52
2018-12-17T21:50:39.946Z,99647.77
2018-12-17T21:53:08.056Z,99650.14
2018-12-17T21:55:36.140Z,99648.27
2018-12-17T21:58:04.579Z,99648.30
2018-12-17T22:00:32.659Z,99645.80
2018-12-17T22:03:00.702Z,99651.13
2018-12-17T22:05:28.751Z,99646.17
2018-12-17T22:07:56.847Z,99646.50
2018-12-17T22:10:25.295Z,99646.34
2018-12-17T22:12:53.898Z,99647.25
2018-12-17T22:15:22.908Z,99647.73
2018-12-17T22:17:50.959Z,99644.74
2018-12-17T22:20:19.047Z,99650.06
2018-12-17T22:22:47.102Z,99651.98
2018-12-17T22:25:15.191Z,99650.33
2018-12-17T22:27:43.263Z,99654.41
2018-12-17T22:30:11.355Z,99654.29
2018-12-17T22:32:39.396Z,99653.02
2018-12-17T22:35:07.641Z,99654.86
2018-12-17T22:37:35.751Z,99656.27
2018-12-17T22:40:05.889Z,99652.69
2018-12-17T22:42:33.959Z,99656.95
2018-12-17T22:45:02.135Z,99662.27
2018-12-17T22:47:30.184Z,99659.47
2018-12-17T22:49:58.255Z,99658.27
2018-12-17T22:52:26.330Z,99657.30
2018-12-17T22:54:54.374Z,99660.95
2018-12-17T22:57:22.471Z,99663.35
2018-12-17T22:59:50.848Z,99668.22
2018-12-17T23:02:18.927Z,99667.51
2018-12-17T23:04:47.078Z,99670.70
2018-12-17T23:07:15.187Z,99673.13
2018-12-17T23:09:48.935Z,99670.52
2018-12-17T23:12:22.742Z,99669.66
2018-12-17T23:14:56.474Z,99677.42
2018-12-17T23:17:30.203Z,99675.55
2018-12-17T23:19:58.242Z,99670.88
2018-12-17T23:22:26.711Z,99675.92
2018-12-17T23:24:54.827Z,99672.03
2018-12-17T23:27:23.208Z,99676.31
2018-12-17T23:29:51.260Z,99677.68
2018-12-17T23:32:19.499Z,99682.09
2018-12-17T23:34:47.631Z,99676.23
2018-12-17T23:37:16.603Z,99675.63
2018-12-17T23:39:44.700Z,99673.58
2018-12-17T23:42:12.739Z,99676.06
2018-12-17T23:44:40.903Z,99678.17
2018-12-17T23:47:08.975Z,99666.31
2018-12-17T23:49:37.062Z,99671.63
2018-12-17T23:52:05.160Z,99665.84
2018-12-17T23:54:33.433Z,99668.07
2018-12-17T23:57:01.609Z,99662.99
2018-12-17T23:59:29.655Z,99662.32
